Time;durP1;ratioP1;P1;durP2;ratioP2;P2;SDS_P1;SDS_P2;PMS_P1;PMS_P2;Temp;Humidity;BMP_temperature;BMP_pressure;BME280_temperature;BME280_humidity;BME280_pressure;Samples;Min_cycle;Max_cycle;Signal;HPM_P1;HPM_P2
2022/10/22 00:00:27;;;;;;;7.22;6.45;;;12.00;99.90;;;;;;7367028;19;20503;-45
2022/10/22 00:02:53;;;;;;;9.32;5.85;;;12.00;99.90;;;;;;7365494;19;20081;-48
2022/10/22 00:05:19;;;;;;;9.07;6.82;;;12.00;99.90;;;;;;7367392;19;20031;-47
2022/10/22 00:07:45;;;;;;;9.38;6.25;;;11.90;99.90;;;;;;7370785;19;20018;-47
2022/10/22 00:10:11;;;;;;;8.38;5.95;;;11.90;99.90;;;;;;7363098;19;20022;-46
2022/10/22 00:12:38;;;;;;;8.35;6.90;;;11.80;99.90;;;;;;7361132;19;20365;-46
2022/10/22 00:15:05;;;;;;;9.18;7.10;;;11.80;99.90;;;;;;7366824;19;20454;-45
2022/10/22 00:17:31;;;;;;;9.60;7.70;;;11.80;99.90;;;;;;7364862;19;20041;-48
2022/10/22 00:19:58;;;;;;;7.90;6.13;;;11.80;99.90;;;;;;7370316;19;20029;-48
2022/10/22 00:22:25;;;;;;;11.80;7.18;;;11.70;99.90;;;;;;7371618;19;20031;-48
2022/10/22 00:24:51;;;;;;;10.23;7.43;;;11.70;99.90;;;;;;7369119;19;20014;-46
2022/10/22 00:27:17;;;;;;;10.38;7.75;;;11.70;99.90;;;;;;7371815;19;20014;-45
2022/10/22 00:29:43;;;;;;;10.93;7.00;;;11.70;99.90;;;;;;7374311;19;20022;-46
2022/10/22 00:32:10;;;;;;;8.43;6.15;;;11.60;99.90;;;;;;7373983;19;20017;-44
2022/10/22 00:34:36;;;;;;;11.23;7.50;;;11.60;99.90;;;;;;7369133;19;20022;-47
2022/10/22 00:37:02;;;;;;;11.55;7.28;;;11.60;99.90;;;;;;7367877;19;20016;-44
2022/10/22 00:39:29;;;;;;;11.13;8.73;;;11.60;99.90;;;;;;7374454;19;20037;-47
2022/10/22 00:41:56;;;;;;;14.48;10.20;;;11.50;99.90;;;;;;7382184;19;20567;-47
2022/10/22 00:45:03;;;;;;;14.07;9.85;;;11.70;99.90;;;;;;7377025;19;20525;-47
2022/10/22 00:47:35;;;;;;;13.95;11.88;;;11.70;99.90;;;;;;7372560;19;20015;-45
2022/10/22 00:50:04;;;;;;;16.60;10.23;;;11.70;99.90;;;;;;7368191;19;20621;-46
2022/10/22 00:52:32;;;;;;;16.10;9.98;;;11.70;99.90;;;;;;7370428;19;20031;-47
2022/10/22 00:54:59;;;;;;;11.43;9.75;;;11.70;99.90;;;;;;7368489;19;20022;-50
2022/10/22 00:57:26;;;;;;;18.50;11.57;;;11.70;99.90;;;;;;7373030;19;20011;-49
2022/10/22 00:59:54;;;;;;;13.55;10.27;;;11.70;99.90;;;;;;7377316;19;20018;-45
2022/10/22 01:02:20;;;;;;;14.43;11.05;;;11.60;99.90;;;;;;7377227;19;20010;-48
2022/10/22 01:04:46;;;;;;;13.90;11.32;;;11.60;99.90;;;;;;7378983;19;20433;-45
2022/10/22 01:07:17;;;;;;;12.50;10.88;;;11.60;99.90;;;;;;7375636;19;20018;-45
2022/10/22 01:10:10;;;;;;;13.13;10.13;;;11.60;99.90;;;;;;7376850;19;20558;-44
2022/10/22 01:12:50;;;;;;;15.35;11.27;;;11.60;99.90;;;;;;7377300;19;20035;-46
2022/10/22 01:15:31;;;;;;;18.13;11.27;;;11.60;99.90;;;;;;7377021;19;20145;-45
2022/10/22 01:18:16;;;;;;;23.05;13.40;;;11.70;99.90;;;;;;7371343;19;20018;-46
2022/10/22 01:20:55;;;;;;;21.65;14.23;;;11.70;99.90;;;;;;7373542;19;20019;-44
2022/10/22 01:23:24;;;;;;;21.58;13.75;;;11.70;99.90;;;;;;7377750;19;20026;-44
2022/10/22 01:25:59;;;;;;;22.10;15.07;;;11.70;99.90;;;;;;7377556;19;20021;-45
2022/10/22 01:28:53;;;;;;;19.13;13.57;;;11.70;99.90;;;;;;7373477;19;20018;-46
2022/10/22 01:31:22;;;;;;;19.55;14.23;;;11.70;99.90;;;;;;7374063;19;20392;-44
2022/10/22 01:33:52;;;;;;;20.23;13.10;;;11.70;99.90;;;;;;7377583;19;20018;-44
2022/10/22 01:36:19;;;;;;;16.05;13.30;;;11.70;99.90;;;;;;7371227;19;20457;-47
2022/10/22 01:38:46;;;;;;;21.73;14.68;;;11.70;99.90;;;;;;7375407;19;20549;-44
2022/10/22 01:41:13;;;;;;;30.52;16.00;;;11.80;99.90;;;;;;7370397;19;20030;-45
2022/10/22 01:43:39;;;;;;;20.50;15.68;;;11.70;99.90;;;;;;7369934;19;20506;-45
2022/10/22 01:46:08;;;;;;;20.65;13.50;;;11.70;99.90;;;;;;7374155;19;20519;-43
2022/10/22 01:48:58;;;;;;;16.55;14.00;;;11.80;99.90;;;;;;7373633;19;20062;-47
2022/10/22 01:51:24;;;;;;;19.60;14.32;;;11.70;99.90;;;;;;7371319;19;20413;-44
2022/10/22 01:54:01;;;;;;;18.13;14.10;;;11.70;99.90;;;;;;7372779;19;20036;-45
2022/10/22 01:56:45;;;;;;;20.50;14.88;;;11.70;99.90;;;;;;7375865;19;20018;-46
2022/10/22 01:59:15;;;;;;;24.52;16.02;;;11.70;99.90;;;;;;7370713;19;20018;-45
2022/10/22 02:01:58;;;;;;;22.83;15.93;;;11.80;99.90;;;;;;7364148;19;20382;-47
2022/10/22 02:04:42;;;;;;;26.38;16.67;;;11.80;99.90;;;;;;7364122;19;20577;-43
2022/10/22 02:07:12;;;;;;;23.55;16.55;;;11.90;99.90;;;;;;7368725;19;20015;-44
2022/10/22 02:09:40;;;;;;;18.90;16.08;;;11.90;99.90;;;;;;7364989;19;20014;-43
2022/10/22 02:12:08;;;;;;;17.27;14.30;;;11.90;99.90;;;;;;7366791;19;20022;-45
2022/10/22 02:14:38;;;;;;;18.83;15.00;;;11.90;99.90;;;;;;7366187;19;20015;-46
2022/10/22 02:17:10;;;;;;;19.90;15.80;;;11.90;99.90;;;;;;7363846;19;20098;-45
2022/10/22 02:19:43;;;;;;;23.45;15.70;;;11.90;99.90;;;;;;7361645;19;20022;-44
2022/10/22 02:22:10;;;;;;;17.13;15.13;;;12.00;99.90;;;;;;7371980;19;20523;-44
2022/10/22 02:24:36;;;;;;;19.40;15.68;;;11.80;99.90;;;;;;7372261;19;20015;-46
2022/10/22 02:27:20;;;;;;;21.20;15.73;;;11.80;99.90;;;;;;7375117;19;20026;-45
2022/10/22 02:30:07;;;;;;;18.00;15.00;;;11.80;99.90;;;;;;7374068;19;20019;-45
2022/10/22 02:32:43;;;;;;;19.90;16.00;;;11.70;99.90;;;;;;7376936;19;20423;-44
2022/10/22 02:35:13;;;;;;;16.38;13.55;;;11.70;99.90;;;;;;7370964;19;20086;-46
2022/10/22 02:37:41;;;;;;;17.67;13.15;;;11.70;99.90;;;;;;7372309;19;20030;-45
2022/10/22 02:40:08;;;;;;;16.27;13.88;;;11.70;99.90;;;;;;7374872;19;20487;-47
2022/10/22 02:42:36;;;;;;;18.10;15.00;;;11.70;99.90;;;;;;7371308;19;21070;-45
2022/10/22 02:45:03;;;;;;;21.05;15.00;;;11.60;99.90;;;;;;7370387;19;20474;-44
2022/10/22 02:47:29;;;;;;;21.30;16.40;;;11.60;99.90;;;;;;7367191;19;20470;-44
2022/10/22 02:49:55;;;;;;;23.13;14.75;;;11.60;99.90;;;;;;7369449;19;21068;-47
2022/10/22 02:52:21;;;;;;;23.48;15.73;;;11.60;99.90;;;;;;7373373;19;20021;-44
2022/10/22 02:54:48;;;;;;;19.70;16.35;;;11.60;99.90;;;;;;7374683;19;20029;-44
2022/10/22 02:57:17;;;;;;;19.20;14.02;;;11.60;99.90;;;;;;7370689;19;20101;-45
2022/10/22 02:59:43;;;;;;;21.27;15.13;;;11.70;99.90;;;;;;7373450;19;20402;-47
2022/10/22 03:02:09;;;;;;;20.10;15.05;;;11.60;99.90;;;;;;7366858;19;20549;-46
2022/10/22 03:04:35;;;;;;;21.75;16.23;;;11.60;99.90;;;;;;7370860;19;20022;-46
2022/10/22 03:07:02;;;;;;;20.55;15.63;;;11.60;99.90;;;;;;7373284;19;20030;-46
2022/10/22 03:09:28;;;;;;;21.35;15.80;;;11.50;99.90;;;;;;7370689;19;20062;-46
2022/10/22 03:11:54;;;;;;;18.15;13.55;;;11.50;99.90;;;;;;7361935;19;20023;-45
2022/10/22 03:14:20;;;;;;;20.02;15.68;;;11.50;99.90;;;;;;7367575;19;20489;-45
2022/10/22 03:16:47;;;;;;;21.55;17.00;;;11.50;99.90;;;;;;7362543;19;20461;-44
2022/10/22 03:19:13;;;;;;;25.95;18.38;;;11.60;99.90;;;;;;7364007;19;20637;-45
2022/10/22 03:22:08;;;;;;;22.40;17.30;;;11.70;99.90;;;;;;7371741;19;20533;-49
2022/10/22 03:24:39;;;;;;;27.20;19.02;;;11.70;99.90;;;;;;7372430;19;20015;-44
2022/10/22 03:27:05;;;;;;;26.55;19.40;;;11.80;99.90;;;;;;7374218;19;20057;-46
2022/10/22 03:29:36;;;;;;;29.33;18.92;;;11.80;99.90;;;;;;7374332;19;20026;-46
2022/10/22 03:32:02;;;;;;;29.00;19.58;;;11.80;99.90;;;;;;7371900;19;20026;-47
2022/10/22 03:34:29;;;;;;;26.05;20.35;;;11.80;99.90;;;;;;7370402;19;20048;-45
2022/10/22 03:36:57;;;;;;;29.10;19.92;;;11.90;99.90;;;;;;7370823;19;20528;-44
2022/10/22 03:39:23;;;;;;;27.10;19.48;;;11.90;99.90;;;;;;7376385;19;20482;-44
2022/10/22 03:41:51;;;;;;;27.83;18.08;;;11.80;99.90;;;;;;7368092;19;20109;-45
2022/10/22 03:44:18;;;;;;;24.08;18.52;;;11.80;99.90;;;;;;7366715;19;20018;-45
2022/10/22 03:46:45;;;;;;;22.27;17.50;;;11.80;99.90;;;;;;7370237;19;20046;-45
2022/10/22 03:49:11;;;;;;;23.83;18.83;;;11.80;99.90;;;;;;7367131;19;20015;-45
2022/10/22 03:51:37;;;;;;;25.50;19.42;;;11.80;99.90;;;;;;7367696;19;20022;-47
2022/10/22 03:54:04;;;;;;;23.88;19.58;;;11.80;99.90;;;;;;7369004;19;20054;-49
2022/10/22 03:56:30;;;;;;;25.63;18.75;;;11.70;99.90;;;;;;7367886;19;20022;-43
2022/10/22 03:58:58;;;;;;;23.08;19.15;;;11.70;99.90;;;;;;7373293;19;20022;-44
2022/10/22 04:01:26;;;;;;;21.58;18.70;;;11.70;99.90;;;;;;7369227;19;20025;-45
2022/10/22 04:03:53;;;;;;;24.13;18.48;;;11.60;99.90;;;;;;7372394;19;20390;-45
2022/10/22 04:06:19;;;;;;;21.92;17.75;;;11.60;99.90;;;;;;7370381;19;20082;-44
2022/10/22 04:08:46;;;;;;;23.65;17.98;;;11.60;99.90;;;;;;7372401;19;20451;-44
2022/10/22 04:11:13;;;;;;;25.15;19.02;;;11.50;99.90;;;;;;7372326;19;20054;-47
2022/10/22 04:13:40;;;;;;;22.33;18.02;;;11.50;99.90;;;;;;7378726;19;20011;-45
2022/10/22 04:16:18;;;;;;;26.30;19.02;;;11.50;99.90;;;;;;7371139;19;20022;-44
2022/10/22 04:18:47;;;;;;;26.10;19.58;;;11.50;99.90;;;;;;7370647;19;20015;-47
2022/10/22 04:21:17;;;;;;;24.38;18.83;;;11.50;99.90;;;;;;7369632;19;20025;-46
2022/10/22 04:23:50;;;;;;;24.75;19.98;;;11.50;99.90;;;;;;7372639;19;20019;-46
2022/10/22 04:26:18;;;;;;;27.20;19.63;;;11.50;99.90;;;;;;7375595;19;20590;-44
2022/10/22 04:28:46;;;;;;;27.98;20.02;;;11.50;99.90;;;;;;7380626;19;20061;-45
2022/10/22 04:31:18;;;;;;;28.00;19.45;;;11.50;99.90;;;;;;7378825;19;20022;-45
2022/10/22 04:33:45;;;;;;;29.08;19.70;;;11.50;99.90;;;;;;7381767;19;20491;-44
2022/10/22 04:36:17;;;;;;;26.20;20.02;;;11.40;99.90;;;;;;7373186;19;20043;-47
2022/10/22 04:38:45;;;;;;;31.10;20.98;;;11.50;99.90;;;;;;7378761;19;20031;-46
2022/10/22 04:41:18;;;;;;;27.58;19.17;;;11.50;99.90;;;;;;7377521;19;20014;-47
2022/10/22 04:43:45;;;;;;;31.23;21.98;;;11.40;99.90;;;;;;7381601;19;20026;-45
2022/10/22 04:46:15;;;;;;;31.88;21.25;;;11.50;99.90;;;;;;7375456;19;20029;-49
2022/10/22 04:48:43;;;;;;;29.92;20.70;;;11.50;99.90;;;;;;7373578;19;20536;-48
2022/10/22 04:51:12;;;;;;;31.00;20.63;;;11.50;99.90;;;;;;7378299;19;20026;-46
2022/10/22 04:53:39;;;;;;;30.23;20.52;;;11.50;99.90;;;;;;7374638;19;20446;-46
2022/10/22 04:56:32;;;;;;;30.08;20.33;;;11.50;99.90;;;;;;7373709;19;20030;-48
2022/10/22 04:59:00;;;;;;;31.65;18.33;;;11.40;99.90;;;;;;7374489;19;20457;-45
2022/10/22 05:01:32;;;;;;;27.27;19.23;;;11.40;99.90;;;;;;7373687;19;20466;-47
2022/10/22 05:04:01;;;;;;;28.25;19.55;;;11.50;99.90;;;;;;7372421;19;20039;-45
2022/10/22 05:06:29;;;;;;;26.63;19.42;;;11.50;99.90;;;;;;7372266;19;20557;-45
2022/10/22 05:08:58;;;;;;;26.45;18.55;;;11.40;99.90;;;;;;7373384;19;20596;-48
2022/10/22 05:11:27;;;;;;;30.92;18.80;;;11.50;99.90;;;;;;7373670;19;20039;-45
2022/10/22 05:13:58;;;;;;;27.63;18.52;;;11.50;99.90;;;;;;7378118;19;20113;-45
2022/10/22 05:16:25;;;;;;;30.80;19.35;;;11.50;99.90;;;;;;7372383;19;20014;-48
2022/10/22 05:18:52;;;;;;;30.05;19.45;;;11.50;99.90;;;;;;7373965;19;20029;-44
2022/10/22 05:21:20;;;;;;;26.02;19.58;;;11.50;99.90;;;;;;7376502;19;20420;-45
2022/10/22 05:23:48;;;;;;;28.15;19.20;;;11.40;99.90;;;;;;7374978;19;20015;-47
2022/10/22 05:26:17;;;;;;;27.42;17.88;;;11.50;99.90;;;;;;7377940;19;20105;-50
2022/10/22 05:28:45;;;;;;;21.77;18.38;;;11.50;99.90;;;;;;7374436;19;20046;-44
2022/10/22 05:31:12;;;;;;;28.17;19.48;;;11.40;99.90;;;;;;7366086;19;20014;-45
2022/10/22 05:33:40;;;;;;;28.15;19.75;;;11.50;99.90;;;;;;7365118;19;20387;-47
2022/10/22 05:36:08;;;;;;;31.50;21.40;;;11.60;99.90;;;;;;7365406;19;20042;-48
2022/10/22 05:38:34;;;;;;;32.15;21.83;;;11.70;99.90;;;;;;7368044;19;20022;-45
2022/10/22 05:41:31;;;;;;;34.08;21.10;;;11.70;99.90;;;;;;7365210;19;20062;-48
2022/10/22 05:43:58;;;;;;;28.80;19.70;;;11.70;99.90;;;;;;7362828;19;20106;-47
2022/10/22 05:46:27;;;;;;;27.02;19.95;;;11.70;99.90;;;;;;7369597;19;20026;-45
2022/10/22 05:48:59;;;;;;;26.38;17.88;;;11.70;99.90;;;;;;7377298;19;20014;-45
2022/10/22 05:51:28;;;;;;;28.67;18.75;;;11.70;99.90;;;;;;7371742;19;20018;-47
2022/10/22 05:53:57;;;;;;;27.38;19.33;;;11.80;99.90;;;;;;7376855;19;20023;-44
2022/10/22 05:56:24;;;;;;;26.95;18.73;;;11.80;99.90;;;;;;7375751;19;20474;-48
2022/10/22 05:58:51;;;;;;;32.45;19.25;;;11.80;99.90;;;;;;7376850;19;20018;-48
2022/10/22 06:01:20;;;;;;;26.33;19.17;;;11.80;99.90;;;;;;7372712;19;21083;-47
2022/10/22 06:03:47;;;;;;;27.23;18.88;;;11.80;99.90;;;;;;7377159;19;20440;-45
2022/10/22 06:06:19;;;;;;;27.52;20.30;;;11.80;99.90;;;;;;7379673;19;20014;-46
2022/10/22 06:08:51;;;;;;;27.70;19.85;;;11.80;99.90;;;;;;7377987;19;20759;-46
2022/10/22 06:11:19;;;;;;;26.95;19.65;;;11.80;99.90;;;;;;7377712;19;20392;-45
2022/10/22 06:13:46;;;;;;;27.70;19.42;;;11.90;99.90;;;;;;7374072;19;20494;-47
2022/10/22 06:16:13;;;;;;;23.23;18.30;;;11.90;99.90;;;;;;7373291;19;20038;-47
2022/10/22 06:18:40;;;;;;;22.92;18.48;;;11.90;99.90;;;;;;7370406;19;20498;-45
2022/10/22 06:21:09;;;;;;;26.50;18.08;;;11.90;99.90;;;;;;7371408;19;20116;-46
2022/10/22 06:23:38;;;;;;;21.10;16.50;;;11.90;99.90;;;;;;7367373;19;20025;-47
2022/10/22 06:26:05;;;;;;;24.20;17.00;;;11.90;99.90;;;;;;7368499;19;20700;-45
2022/10/22 06:28:32;;;;;;;23.88;17.65;;;11.90;99.90;;;;;;7365593;19;20043;-47
2022/10/22 06:31:01;;;;;;;22.33;17.08;;;11.90;99.90;;;;;;7367647;19;20017;-46
2022/10/22 06:33:30;;;;;;;23.73;16.33;;;11.90;99.90;;;;;;7367974;19;20431;-44
2022/10/22 06:36:04;;;;;;;20.70;14.98;;;11.90;99.90;;;;;;7368376;19;20375;-47
2022/10/22 06:38:31;;;;;;;22.80;16.42;;;12.00;99.90;;;;;;7370663;19;20026;-44
2022/10/22 06:41:05;;;;;;;21.35;16.42;;;12.00;99.90;;;;;;7366929;19;20502;-44
2022/10/22 06:43:31;;;;;;;22.98;16.55;;;12.10;99.90;;;;;;7362157;19;20019;-45
2022/10/22 06:45:59;;;;;;;21.98;15.52;;;12.10;99.90;;;;;;7364206;19;20038;-44
2022/10/22 06:48:26;;;;;;;21.42;15.07;;;12.10;99.90;;;;;;7364298;19;20051;-43
2022/10/22 06:50:52;;;;;;;20.35;15.57;;;12.10;99.90;;;;;;7372664;19;20753;-44
2022/10/22 06:53:19;;;;;;;21.25;16.98;;;12.20;99.90;;;;;;7371313;19;20530;-44
2022/10/22 06:55:45;;;;;;;19.50;14.52;;;12.20;99.90;;;;;;7370872;19;20388;-48
2022/10/22 06:58:11;;;;;;;21.27;14.68;;;12.30;99.90;;;;;;7374024;19;20035;-46
2022/10/22 07:00:38;;;;;;;18.13;14.70;;;12.30;99.90;;;;;;7371570;19;20035;-48
2022/10/22 07:03:04;;;;;;;18.67;14.95;;;12.30;99.90;;;;;;7372220;19;20556;-45
2022/10/22 07:05:33;;;;;;;18.48;15.38;;;12.40;99.90;;;;;;7372496;19;20015;-49
2022/10/22 07:07:59;;;;;;;21.27;14.77;;;12.40;99.90;;;;;;7364892;19;20035;-46
2022/10/22 07:10:26;;;;;;;18.35;13.10;;;12.50;99.90;;;;;;7370494;19;20039;-46
2022/10/22 07:12:53;;;;;;;18.17;12.93;;;12.60;99.90;;;;;;7372497;19;20502;-47
2022/10/22 07:15:19;;;;;;;18.55;12.48;;;12.70;99.90;;;;;;7371311;19;20019;-47
2022/10/22 07:17:45;;;;;;;18.30;12.85;;;12.80;99.90;;;;;;7365668;19;20022;-46
2022/10/22 07:20:12;;;;;;;16.73;12.65;;;12.80;99.90;;;;;;7366612;19;20478;-48
2022/10/22 07:22:38;;;;;;;19.52;12.43;;;12.90;99.90;;;;;;7366515;19;20018;-47
2022/10/22 07:25:05;;;;;;;17.25;11.90;;;13.10;99.90;;;;;;7368064;19;20466;-45
2022/10/22 07:27:31;;;;;;;14.70;11.15;;;13.10;99.90;;;;;;7365555;19;20032;-45
2022/10/22 07:29:59;;;;;;;17.95;11.15;;;13.20;99.90;;;;;;7367876;19;20014;-46
2022/10/22 07:32:27;;;;;;;14.40;10.25;;;13.30;99.90;;;;;;7369326;19;20382;-44
2022/10/22 07:34:53;;;;;;;17.45;10.98;;;13.40;99.90;;;;;;7367997;19;20593;-46
2022/10/22 07:37:22;;;;;;;16.15;10.27;;;13.60;99.90;;;;;;7368182;19;20018;-48
2022/10/22 07:39:48;;;;;;;14.00;9.45;;;13.90;99.90;;;;;;7368123;19;20425;-46
2022/10/22 07:42:15;;;;;;;159.73;134.57;;;14.00;99.90;;;;;;7370159;19;20010;-46
2022/10/22 07:44:41;;;;;;;18.15;10.30;;;14.00;99.90;;;;;;7362419;19;20047;-45
2022/10/22 07:47:07;;;;;;;15.07;8.43;;;14.10;99.90;;;;;;7367952;19;20657;-48
2022/10/22 07:49:34;;;;;;;13.15;7.57;;;14.40;99.90;;;;;;7368403;19;20138;-46
2022/10/22 07:52:00;;;;;;;11.95;7.30;;;14.60;99.90;;;;;;7365997;19;20018;-48
2022/10/22 07:54:26;;;;;;;10.40;7.15;;;14.60;99.90;;;;;;7367996;19;20050;-47
2022/10/22 07:56:52;;;;;;;10.95;7.57;;;14.60;99.90;;;;;;7362690;19;20029;-46
2022/10/22 07:59:21;;;;;;;12.32;6.93;;;14.50;99.90;;;;;;7364836;19;20014;-46
2022/10/22 08:01:48;;;;;;;12.20;7.28;;;14.30;99.90;;;;;;7368677;19;20018;-48
2022/10/22 08:04:17;;;;;;;10.82;7.20;;;14.30;99.90;;;;;;7367564;19;20010;-45
2022/10/22 08:06:44;;;;;;;14.00;7.18;;;14.40;99.90;;;;;;7367069;19;20030;-46
2022/10/22 08:09:10;;;;;;;10.57;6.60;;;15.00;99.90;;;;;;7367395;19;20023;-46
2022/10/22 08:11:37;;;;;;;12.90;5.97;;;15.60;99.90;;;;;;7367510;19;20053;-47
2022/10/22 08:14:04;;;;;;;8.48;5.57;;;16.10;99.90;;;;;;7365115;19;20021;-49
2022/10/22 08:16:30;;;;;;;12.27;7.60;;;16.50;99.90;;;;;;7363464;19;20092;-45
2022/10/22 08:18:57;;;;;;;10.32;5.50;;;16.50;99.90;;;;;;7368214;19;20014;-47
2022/10/22 08:21:23;;;;;;;8.00;5.88;;;16.40;99.90;;;;;;7367302;19;20011;-47
2022/10/22 08:23:50;;;;;;;11.38;4.95;;;16.50;99.90;;;;;;7363366;19;20046;-46
2022/10/22 08:26:17;;;;;;;8.23;4.80;;;16.80;99.90;;;;;;7365254;19;20021;-47
2022/10/22 08:28:43;;;;;;;8.05;4.75;;;16.90;99.90;;;;;;7364821;19;20018;-46
2022/10/22 08:31:10;;;;;;;10.60;5.63;;;17.20;99.90;;;;;;7364681;19;20014;-47
2022/10/22 08:33:38;;;;;;;9.57;4.70;;;17.50;99.90;;;;;;7369486;19;20052;-46
2022/10/22 08:36:04;;;;;;;9.05;4.45;;;18.20;99.90;;;;;;7373357;19;20027;-46
2022/10/22 08:38:31;;;;;;;7.63;4.60;;;18.30;99.90;;;;;;7368390;19;20613;-51
2022/10/22 08:41:22;;;;;;;10.70;4.10;;;18.70;99.90;;;;;;7368344;19;20018;-46
2022/10/22 08:44:19;;;;;;;6.78;4.13;;;18.80;99.90;;;;;;7364679;19;20023;-47
2022/10/22 08:47:11;;;;;;;7.10;4.10;;;19.20;99.90;;;;;;7366776;19;20025;-49
2022/10/22 08:49:41;;;;;;;8.18;3.45;;;19.40;99.90;;;;;;7363552;19;20023;-45
2022/10/22 08:52:14;;;;;;;5.50;3.90;;;19.70;99.90;;;;;;7369218;19;20398;-49
2022/10/22 08:55:01;;;;;;;8.57;3.75;;;19.80;99.90;;;;;;7369149;19;20498;-47
2022/10/22 08:57:50;;;;;;;8.23;4.05;;;19.30;99.90;;;;;;7365016;19;20470;-46
2022/10/22 09:00:20;;;;;;;10.73;4.35;;;19.70;99.90;;;;;;7372717;19;20018;-47
2022/10/22 09:03:08;;;;;;;8.18;3.80;;;19.50;99.90;;;;;;7371635;19;20022;-45
2022/10/22 09:05:35;;;;;;;12.43;4.63;;;19.80;99.90;;;;;;7367542;19;20018;-45
2022/10/22 09:08:01;;;;;;;8.90;3.60;;;19.50;99.90;;;;;;7368034;19;20031;-45
2022/10/22 09:10:33;;;;;;;7.60;3.47;;;19.80;99.90;;;;;;7366494;19;20788;-46
2022/10/22 09:12:59;;;;;;;7.72;4.50;;;19.80;99.90;;;;;;7365053;19;20565;-47
2022/10/22 09:15:26;;;;;;;6.28;3.55;;;19.80;99.90;;;;;;7362835;19;20490;-45
2022/10/22 09:18:01;;;;;;;10.73;3.92;;;19.40;99.90;;;;;;7356009;19;20890;-46
2022/10/22 09:20:43;;;;;;;13.30;5.05;;;19.30;99.90;;;;;;7359256;19;20018;-44
2022/10/22 09:23:15;;;;;;;9.02;4.20;;;18.90;99.90;;;;;;7361050;19;20351;-44
2022/10/22 09:25:44;;;;;;;7.65;3.65;;;18.70;99.90;;;;;;7360961;19;20022;-50
2022/10/22 09:28:11;;;;;;;7.38;3.35;;;18.30;99.90;;;;;;7361008;19;20383;-46
2022/10/22 09:30:38;;;;;;;9.57;4.30;;;18.00;99.90;;;;;;7361693;19;20014;-45
2022/10/22 09:33:05;;;;;;;11.20;3.78;;;17.80;99.90;;;;;;7361654;19;20073;-46
2022/10/22 09:35:47;;;;;;;10.73;3.58;;;17.60;99.90;;;;;;7360606;19;20015;-47
2022/10/22 09:38:17;;;;;;;;;;;17.50;99.90;;;;;;7362092;19;20789;-43
2022/10/22 09:40:50;;;;;;;8.73;3.20;;;17.40;99.90;;;;;;7356556;19;19973;-45
2022/10/22 09:43:17;;;;;;;8.57;3.05;;;17.10;99.90;;;;;;7342922;19;20038;-44
2022/10/22 09:45:44;;;;;;;8.60;3.40;;;17.00;99.90;;;;;;7354928;19;20022;-43
2022/10/22 09:48:14;;;;;;;8.18;3.50;;;16.90;99.90;;;;;;7356631;19;20065;-44
2022/10/22 09:50:47;;;;;;;11.40;4.15;;;16.70;99.90;;;;;;7360003;19;20014;-44
2022/10/22 09:53:17;;;;;;;14.32;3.75;;;16.70;99.90;;;;;;7357383;19;20025;-45
2022/10/22 09:55:50;;;;;;;9.55;3.83;;;16.50;99.90;;;;;;7360273;19;20051;-43
2022/10/22 09:58:18;;;;;;;8.63;3.40;;;16.40;99.90;;;;;;7358675;19;20011;-44
2022/10/22 10:00:57;;;;;;;10.52;4.32;;;16.40;99.90;;;;;;7360517;19;20018;-44
2022/10/22 10:03:32;;;;;;;9.50;4.03;;;16.30;99.90;;;;;;7360753;19;20494;-44
2022/10/22 10:06:00;;;;;;;8.20;3.45;;;16.30;99.90;;;;;;7364368;19;21217;-45
2022/10/22 10:08:26;;;;;;;7.13;3.47;;;16.30;99.90;;;;;;7362382;19;20445;-47
2022/10/22 10:10:59;;;;;;;9.18;3.85;;;16.20;99.90;;;;;;7358508;19;20601;-44
2022/10/22 10:13:29;;;;;;;11.50;3.58;;;16.20;99.90;;;;;;7359408;19;20018;-44
2022/10/22 10:16:07;;;;;;;8.77;4.00;;;16.30;99.90;;;;;;7358148;19;20042;-47
2022/10/22 10:19:08;;;;;;;9.57;4.68;;;16.20;99.90;;;;;;7355908;19;20030;-44
2022/10/22 10:22:05;;;;;;;12.95;4.47;;;16.20;99.90;;;;;;7357857;19;20014;-44
2022/10/22 10:24:57;;;;;;;9.70;4.65;;;16.10;99.90;;;;;;7364289;19;20439;-46
2022/10/22 10:27:34;;;;;;;9.55;4.20;;;16.20;99.90;;;;;;7358461;19;20022;-44
2022/10/22 10:30:08;;;;;;;8.20;4.13;;;16.30;99.90;;;;;;7361498;19;20049;-44
2022/10/22 10:33:09;;;;;;;10.38;4.90;;;16.40;99.90;;;;;;7357424;19;20018;-43
2022/10/22 10:35:47;;;;;;;8.98;4.93;;;16.50;99.90;;;;;;7357886;19;20020;-44
2022/10/22 10:38:46;;;;;;;9.82;4.72;;;16.80;99.90;;;;;;7361540;19;20706;-45
2022/10/22 10:41:25;;;;;;;10.23;4.47;;;16.80;99.90;;;;;;7354419;19;20026;-44
2022/10/22 10:43:54;;;;;;;10.90;4.20;;;16.90;99.90;;;;;;7358447;19;20022;-46
2022/10/22 10:46:31;;;;;;;10.48;4.32;;;16.80;99.90;;;;;;7358696;19;20738;-45
2022/10/22 10:49:22;;;;;;;9.63;4.30;;;16.70;99.90;;;;;;7360201;19;20022;-43
2022/10/22 10:52:07;;;;;;;8.45;4.20;;;16.60;99.90;;;;;;7360754;19;20073;-44
2022/10/22 10:55:10;;;;;;;8.45;4.38;;;16.50;99.90;;;;;;7357073;19;20014;-46
2022/10/22 10:57:56;;;;;;;10.25;4.78;;;16.40;99.90;;;;;;7354740;19;20014;-45
2022/10/22 11:00:23;;;;;;;10.88;4.85;;;16.50;99.90;;;;;;7360524;19;20617;-43
2022/10/22 11:03:19;;;;;;;10.95;4.82;;;16.40;99.90;;;;;;7360041;19;20054;-45
2022/10/22 11:05:54;;;;;;;11.50;5.70;;;16.30;99.90;;;;;;7363450;19;20022;-43
2022/10/22 11:08:27;;;;;;;9.68;6.32;;;16.20;99.90;;;;;;7361459;19;20018;-43
2022/10/22 11:11:31;;;;;;;12.88;6.22;;;16.00;99.90;;;;;;7360747;19;20018;-44
2022/10/22 11:14:09;;;;;;;10.55;5.80;;;15.90;99.90;;;;;;7360962;19;20035;-44
2022/10/22 11:16:49;;;;;;;11.00;6.10;;;15.70;99.90;;;;;;7357632;19;20639;-44
2022/10/22 11:19:22;;;;;;;12.70;7.05;;;15.70;99.90;;;;;;7365650;19;20024;-42
2022/10/22 11:22:04;;;;;;;12.65;7.57;;;15.60;99.90;;;;;;7360243;19;20048;-43
2022/10/22 11:24:40;;;;;;;12.30;8.27;;;15.60;99.90;;;;;;7363013;19;20374;-44
2022/10/22 11:27:30;;;;;;;13.95;7.55;;;15.50;99.90;;;;;;7361616;19;20157;-44
2022/10/22 11:30:03;;;;;;;11.27;7.65;;;15.60;99.90;;;;;;7360904;19;20112;-44
2022/10/22 11:32:32;;;;;;;13.18;6.90;;;15.60;99.90;;;;;;7361821;19;20018;-47
2022/10/22 11:35:04;;;;;;;15.20;7.85;;;15.70;99.90;;;;;;7359515;19;20160;-46
2022/10/22 11:37:33;;;;;;;11.68;7.05;;;15.70;99.90;;;;;;7358861;19;20018;-48
2022/10/22 11:40:18;;;;;;;12.10;6.70;;;15.80;99.90;;;;;;7361893;19;20370;-43
2022/10/22 11:42:55;;;;;;;10.82;7.05;;;15.80;99.90;;;;;;7357592;19;20017;-44
2022/10/22 11:45:27;;;;;;;10.45;7.45;;;16.10;99.90;;;;;;7361445;19;20581;-45
2022/10/22 11:48:08;;;;;;;12.98;7.68;;;16.30;99.90;;;;;;7356276;19;20569;-45
2022/10/22 11:50:43;;;;;;;13.40;7.53;;;16.40;99.90;;;;;;7359188;19;20392;-45
2022/10/22 11:53:12;;;;;;;13.57;7.82;;;16.50;99.90;;;;;;7358097;19;20010;-46
2022/10/22 11:55:48;;;;;;;11.50;5.70;;;17.20;99.90;;;;;;7358393;19;20056;-44
2022/10/22 11:58:38;;;;;;;12.10;7.63;;;17.60;99.90;;;;;;7352045;19;20428;-48
2022/10/22 12:01:07;;;;;;;9.73;6.05;;;17.60;99.90;;;;;;7360199;19;20051;-44
2022/10/22 12:03:38;;;;;;;9.90;5.75;;;17.30;99.90;;;;;;7355105;19;20752;-44
2022/10/22 12:06:18;;;;;;;11.95;6.07;;;17.30;99.90;;;;;;7363382;19;20785;-46
2022/10/22 12:09:06;;;;;;;11.40;5.82;;;17.20;99.90;;;;;;7358160;19;20522;-43
2022/10/22 12:11:49;;;;;;;10.27;6.32;;;17.20;99.90;;;;;;7355881;19;20019;-43
2022/10/22 12:14:28;;;;;;;14.48;5.75;;;17.20;99.90;;;;;;7356149;19;20014;-44
2022/10/22 12:16:56;;;;;;;9.75;5.60;;;17.10;99.90;;;;;;7354866;19;20018;-43
2022/10/22 12:19:28;;;;;;;11.00;5.47;;;17.00;99.90;;;;;;7360235;19;20082;-44
2022/10/22 12:21:58;;;;;;;11.40;5.93;;;16.80;99.90;;;;;;7355078;19;20018;-45
2022/10/22 12:24:30;;;;;;;10.02;5.43;;;16.80;99.90;;;;;;7359074;19;20035;-44
2022/10/22 12:26:56;;;;;;;12.20;5.78;;;16.70;99.90;;;;;;7356730;19;20025;-44
2022/10/22 12:29:26;;;;;;;13.52;5.80;;;16.60;99.90;;;;;;7355569;19;20094;-44
2022/10/22 12:31:53;;;;;;;10.60;5.85;;;16.50;99.90;;;;;;7357043;19;20034;-43
2022/10/22 12:34:23;;;;;;;10.63;6.63;;;16.50;99.90;;;;;;7361800;19;21826;-43
2022/10/22 12:36:52;;;;;;;10.77;6.05;;;16.30;99.90;;;;;;7366137;19;20029;-42
2022/10/22 12:39:24;;;;;;;12.38;5.88;;;16.20;99.90;;;;;;7363346;19;20014;-43
2022/10/22 12:41:52;;;;;;;9.15;6.10;;;16.20;99.90;;;;;;7367145;19;20024;-43
2022/10/22 12:44:18;;;;;;;11.65;6.18;;;16.20;99.90;;;;;;7367365;19;20065;-43
2022/10/22 12:46:49;;;;;;;12.15;6.03;;;16.10;99.90;;;;;;7348405;19;20382;-43
2022/10/22 12:49:37;;;;;;;10.70;6.05;;;16.10;99.90;;;;;;7361837;19;20039;-44
2022/10/22 12:52:07;;;;;;;9.05;6.28;;;16.10;99.90;;;;;;7364084;19;20588;-44
2022/10/22 12:54:34;;;;;;;9.60;6.35;;;16.10;99.90;;;;;;7359811;19;20014;-43